createdAt,value
2022-08-20T00:02:10.814Z,23.30
2022-08-20T00:04:41.260Z,23.39
2022-08-20T00:07:09.396Z,23.24
2022-08-20T00:09:37.418Z,23.41
2022-08-20T00:12:06.541Z,23.37
2022-08-20T00:14:35.119Z,23.10
2022-08-20T00:17:03.509Z,23.16
2022-08-20T00:19:31.567Z,23.05
2022-08-20T00:22:00.952Z,23.27
2022-08-20T00:24:28.890Z,23.18
2022-08-20T00:26:56.914Z,23.15
2022-08-20T00:29:24.988Z,23.34
2022-08-20T00:31:52.954Z,23.11
2022-08-20T00:34:22.416Z,23.15
2022-08-20T00:36:50.478Z,23.26
2022-08-20T00:39:19.724Z,23.31
2022-08-20T00:41:47.656Z,23.29
2022-08-20T00:44:18.547Z,23.33
2022-08-20T00:46:47.713Z,23.24
2022-08-20T00:49:18.532Z,23.18
2022-08-20T00:51:51.537Z,23.04
2022-08-20T00:54:26.090Z,23.27
2022-08-20T00:56:58.935Z,23.16
2022-08-20T00:59:30.017Z,23.17
2022-08-20T01:01:58.657Z,23.24
2022-08-20T01:04:28.404Z,23.24
2022-08-20T01:06:56.592Z,23.17
2022-08-20T01:09:49.628Z,23.34
2022-08-20T01:12:16.071Z,23.27
2022-08-20T01:14:46.592Z,23.44
2022-08-20T01:17:20.114Z,23.53
2022-08-20T01:19:53.588Z,23.22
2022-08-20T01:22:47.242Z,23.27
2022-08-20T01:25:26.478Z,23.30
2022-08-20T01:27:57.317Z,23.33
2022-08-20T01:30:29.925Z,23.36
2022-08-20T01:32:57.983Z,23.21
2022-08-20T01:35:26.517Z,23.32
2022-08-20T01:37:54.631Z,23.20
2022-08-20T01:40:36.635Z,23.26
2022-08-20T01:43:06.488Z,23.05
2022-08-20T01:45:36.366Z,23.16
2022-08-20T01:48:06.163Z,23.00
2022-08-20T01:50:37.127Z,22.77
2022-08-20T01:53:11.084Z,22.86
2022-08-20T01:55:39.485Z,22.93
2022-08-20T01:58:08.808Z,22.62
2022-08-20T02:00:37.425Z,22.72
2022-08-20T02:03:07.674Z,22.45
2022-08-20T02:05:36.004Z,22.74
2022-08-20T02:08:05.427Z,22.52
2022-08-20T02:10:34.225Z,22.60
2022-08-20T02:13:02.521Z,22.49
2022-08-20T02:15:37.256Z,22.74
2022-08-20T02:18:10.241Z,22.53
2022-08-20T02:20:38.813Z,22.83
2022-08-20T02:23:08.753Z,22.50
2022-08-20T02:25:40.146Z,22.59
2022-08-20T02:28:12.737Z,22.61
2022-08-20T02:30:46.941Z,22.58
2022-08-20T02:33:17.217Z,22.94
2022-08-20T02:35:47.948Z,22.87
2022-08-20T02:38:16.725Z,23.11
2022-08-20T02:40:45.880Z,23.05
2022-08-20T02:43:14.493Z,23.01
2022-08-20T02:45:44.674Z,23.14
2022-08-20T02:48:20.639Z,23.13
2022-08-20T02:50:54.350Z,23.21
2022-08-20T02:53:22.889Z,23.22
2022-08-20T02:55:51.445Z,22.86
2022-08-20T02:58:20.692Z,22.65
2022-08-20T03:00:50.735Z,22.81
2022-08-20T03:03:22.558Z,22.64
2022-08-20T03:05:54.510Z,22.68
2022-08-20T03:08:22.849Z,22.73
2022-08-20T03:10:51.593Z,22.80
2022-08-20T03:13:21.421Z,22.81
2022-08-20T03:15:57.909Z,22.60
2022-08-20T03:18:29.745Z,22.58
2022-08-20T03:20:57.838Z,22.62
2022-08-20T03:23:25.765Z,22.49
2022-08-20T03:25:53.719Z,22.45
2022-08-20T03:28:21.641Z,22.40
2022-08-20T03:30:51.535Z,22.52
2022-08-20T03:33:20.235Z,22.52
2022-08-20T03:35:49.197Z,22.47
2022-08-20T03:38:20.741Z,22.20
2022-08-20T03:41:00.774Z,22.35
2022-08-20T03:43:29.108Z,22.31
2022-08-20T03:45:58.401Z,22.55
2022-08-20T03:48:26.556Z,22.60
2022-08-20T03:50:55.774Z,22.56
2022-08-20T03:53:23.951Z,22.27
2022-08-20T03:55:58.251Z,22.36
2022-08-20T03:58:34.941Z,22.57
2022-08-20T04:01:09.013Z,22.41
2022-08-20T04:03:58.623Z,22.36
2022-08-20T04:06:29.210Z,22.61
2022-08-20T04:08:57.675Z,22.49
2022-08-20T04:11:25.665Z,22.47
2022-08-20T04:13:53.663Z,22.48
2022-08-20T04:16:23.744Z,22.50
2022-08-20T04:19:02.041Z,22.31
2022-08-20T04:21:32.985Z,22.41
2022-08-20T04:24:02.252Z,22.64
2022-08-20T04:26:30.382Z,22.47
2022-08-20T04:28:58.329Z,22.53
2022-08-20T04:31:32.683Z,22.41
2022-08-20T04:34:01.708Z,22.56
2022-08-20T04:36:29.797Z,22.55
2022-08-20T04:38:57.814Z,22.44
2022-08-20T04:41:25.786Z,22.44
2022-08-20T04:43:54.946Z,22.44
2022-08-20T04:46:27.617Z,22.46
2022-08-20T04:48:57.580Z,22.75
2022-08-20T04:51:26.826Z,22.63
2022-08-20T04:53:56.195Z,22.46
2022-08-20T04:56:26.448Z,22.68
2022-08-20T04:58:55.978Z,22.42
2022-08-20T05:01:26.016Z,22.32
2022-08-20T05:03:57.150Z,22.58
2022-08-20T05:06:28.588Z,22.59
2022-08-20T05:08:59.035Z,22.65
2022-08-20T05:11:35.677Z,22.72
2022-08-20T05:14:08.577Z,22.73
2022-08-20T05:16:39.037Z,22.77
2022-08-20T05:19:10.869Z,22.54
2022-08-20T05:21:39.453Z,22.60
2022-08-20T05:24:08.465Z,22.57
2022-08-20T05:26:36.713Z,22.37
2022-08-20T05:29:06.781Z,22.48
2022-08-20T05:31:35.857Z,22.55
2022-08-20T05:34:09.554Z,22.63
2022-08-20T05:36:41.068Z,22.60
2022-08-20T05:39:10.048Z,22.54
2022-08-20T05:41:38.831Z,22.48
2022-08-20T05:44:10.615Z,22.70
2022-08-20T05:46:40.473Z,22.30
2022-08-20T05:49:08.779Z,22.37
2022-08-20T05:51:37.447Z,22.49
2022-08-20T05:54:07.191Z,22.30
2022-08-20T05:56:36.003Z,22.73
2022-08-20T05:59:05.837Z,22.55
2022-08-20T06:01:35.034Z,22.45
2022-08-20T06:04:21.024Z,22.17
2022-08-20T06:06:51.130Z,22.26
2022-08-20T06:09:30.952Z,22.25
2022-08-20T06:12:00.881Z,22.28
2022-08-20T06:14:28.840Z,22.17
2022-08-20T06:16:57.706Z,22.41
2022-08-20T06:19:27.284Z,22.33
2022-08-20T06:22:00.551Z,22.31
2022-08-20T06:24:30.544Z,22.51
2022-08-20T06:26:59.027Z,22.57
2022-08-20T06:29:27.524Z,22.67
2022-08-20T06:31:55.988Z,22.62
2022-08-20T06:34:28.431Z,22.57
2022-08-20T06:36:59.608Z,22.66
2022-08-20T06:39:31.311Z,22.81
2022-08-20T06:41:59.641Z,22.73
2022-08-20T06:44:28.522Z,22.78
2022-08-20T06:47:00.975Z,22.72
2022-08-20T06:49:29.023Z,22.80
2022-08-20T06:52:03.764Z,22.70
2022-08-20T06:54:34.308Z,22.78
2022-08-20T06:57:02.447Z,22.83
2022-08-20T06:59:31.149Z,22.67
2022-08-20T07:01:59.084Z,22.84
2022-08-20T07:04:28.148Z,22.75
2022-08-20T07:06:57.671Z,22.74
2022-08-20T07:09:26.662Z,22.82
2022-08-20T07:11:56.144Z,22.70
2022-08-20T07:14:24.230Z,22.92
2022-08-20T07:16:52.126Z,22.70
2022-08-20T07:19:20.066Z,22.87
2022-08-20T07:21:50.642Z,22.90
2022-08-20T07:24:18.569Z,22.91
2022-08-20T07:26:46.701Z,22.50
2022-08-20T07:29:15.977Z,22.67
2022-08-20T07:32:06.901Z,22.70
2022-08-20T07:34:37.768Z,22.65
2022-08-20T07:37:11.579Z,22.61
2022-08-20T07:39:39.551Z,22.77
2022-08-20T07:42:07.793Z,22.72
2022-08-20T07:44:38.460Z,22.79
2022-08-20T07:47:06.802Z,22.81
2022-08-20T07:49:39.281Z,22.81
2022-08-20T07:52:07.879Z,22.84
2022-08-20T07:54:38.054Z,22.63
2022-08-20T07:57:06.450Z,22.57
2022-08-20T07:59:34.502Z,22.69
2022-08-20T08:02:04.241Z,22.70
2022-08-20T08:04:32.169Z,22.55
2022-08-20T08:07:00.571Z,22.74
2022-08-20T08:09:29.484Z,22.90
2022-08-20T08:11:59.188Z,22.97
2022-08-20T08:14:30.033Z,22.70
2022-08-20T08:17:01.384Z,22.67
2022-08-20T08:19:38.692Z,22.90
2022-08-20T08:22:11.471Z,22.88
2022-08-20T08:24:40.041Z,22.76
2022-08-20T08:27:08.919Z,22.91
2022-08-20T08:29:37.123Z,23.01
2022-08-20T08:32:06.713Z,23.03
2022-08-20T08:34:37.573Z,23.00
2022-08-20T08:37:06.280Z,23.02
2022-08-20T08:39:35.177Z,23.02
2022-08-20T08:42:05.163Z,22.89
2022-08-20T08:44:40.621Z,23.01
2022-08-20T08:47:18.293Z,22.97
2022-08-20T08:49:48.903Z,23.10
2022-08-20T08:52:21.065Z,22.86
2022-08-20T08:54:52.695Z,23.09
2022-08-20T08:57:21.108Z,23.09
2022-08-20T09:00:04.137Z,23.15
2022-08-20T09:02:36.299Z,23.20
2022-08-20T09:05:14.837Z,23.05
2022-08-20T09:07:46.850Z,23.29
2022-08-20T09:10:15.213Z,23.38
2022-08-20T09:12:47.614Z,23.53
2022-08-20T09:15:16.641Z,23.47
2022-08-20T09:17:44.515Z,23.37
2022-08-20T09:20:14.197Z,23.18
2022-08-20T09:22:42.163Z,23.30
2022-08-20T09:25:10.677Z,23.42
2022-08-20T09:27:38.857Z,23.58
2022-08-20T09:30:11.904Z,23.61
2022-08-20T09:32:39.918Z,23.75
2022-08-20T09:35:09.542Z,23.41
2022-08-20T09:37:39.083Z,23.81
2022-08-20T09:40:09.006Z,23.72
2022-08-20T09:42:41.699Z,23.75
2022-08-20T09:45:11.532Z,23.94
2022-08-20T09:47:56.595Z,23.66
2022-08-20T09:50:25.328Z,23.46
2022-08-20T09:52:56.705Z,23.53
2022-08-20T09:55:31.337Z,23.75
2022-08-20T09:57:59.857Z,24.03
2022-08-20T10:00:28.107Z,23.93
2022-08-20T10:02:56.173Z,23.58
2022-08-20T10:05:24.264Z,23.75
2022-08-20T10:07:52.380Z,23.95
2022-08-20T10:10:21.781Z,23.86
2022-08-20T10:12:54.591Z,23.67
2022-08-20T10:15:22.686Z,23.91
2022-08-20T10:17:50.709Z,24.17
2022-08-20T10:20:20.385Z,23.86
2022-08-20T10:22:48.412Z,23.94
2022-08-20T10:25:17.801Z,24.21
2022-08-20T10:27:47.202Z,24.10
2022-08-20T10:30:15.374Z,24.51
2022-08-20T10:32:43.772Z,24.06
2022-08-20T10:35:11.709Z,24.46
2022-08-20T10:37:39.638Z,24.25
2022-08-20T10:40:08.853Z,24.52
2022-08-20T10:42:41.824Z,24.55
2022-08-20T10:45:13.608Z,24.46
2022-08-20T10:47:42.393Z,24.48
2022-08-20T10:50:14.362Z,24.43
2022-08-20T10:52:42.526Z,24.58
2022-08-20T10:55:11.272Z,24.60
2022-08-20T10:57:41.382Z,24.49
2022-08-20T11:00:11.512Z,24.64
2022-08-20T11:02:40.945Z,24.65
2022-08-20T11:05:09.549Z,24.63
2022-08-20T11:07:50.531Z,24.49
2022-08-20T11:10:25.680Z,24.55
2022-08-20T11:12:53.815Z,24.57
2022-08-20T11:15:21.804Z,24.77
2022-08-20T11:17:51.189Z,24.45
2022-08-20T11:20:21.274Z,24.25
2022-08-20T11:22:49.206Z,24.43
2022-08-20T11:25:17.491Z,24.54
2022-08-20T11:27:48.323Z,24.61
2022-08-20T11:30:20.587Z,24.71
2022-08-20T11:32:48.594Z,24.81
2022-08-20T11:35:41.677Z,24.80
2022-08-20T11:38:06.743Z,24.76
2022-08-20T11:40:34.697Z,24.70
2022-08-20T11:43:18.503Z,24.61
2022-08-20T11:45:48.945Z,24.61
2022-08-20T11:48:16.892Z,24.61
2022-08-20T11:50:46.737Z,24.47
2022-08-20T11:53:14.911Z,24.52
2022-08-20T11:55:43.496Z,24.36
2022-08-20T11:58:12.393Z,24.30
2022-08-20T12:00:40.735Z,24.43
2022-08-20T12:03:10.225Z,24.50
2022-08-20T12:05:41.287Z,24.55
2022-08-20T12:08:27.615Z,24.63
2022-08-20T12:10:58.480Z,24.73
2022-08-20T12:13:30.977Z,24.59
2022-08-20T12:16:15.091Z,24.81
2022-08-20T12:18:43.097Z,24.72
2022-08-20T12:21:11.086Z,24.82
2022-08-20T12:23:40.437Z,24.80
2022-08-20T12:26:08.521Z,24.74
2022-08-20T12:28:36.527Z,24.57
2022-08-20T12:31:05.028Z,24.52
2022-08-20T12:33:32.966Z,24.56
2022-08-20T12:36:00.932Z,24.62
2022-08-20T12:38:28.933Z,24.66
2022-08-20T12:40:58.235Z,24.64
2022-08-20T12:43:26.168Z,24.71
2022-08-20T12:45:54.078Z,24.67
2022-08-20T12:48:22.019Z,24.64
2022-08-20T12:50:52.669Z,24.61
2022-08-20T12:53:20.738Z,24.80
2022-08-20T12:55:48.804Z,24.79
2022-08-20T12:58:18.176Z,24.87
2022-08-20T13:00:50.959Z,24.54
2022-08-20T13:03:20.868Z,24.55
2022-08-20T13:05:49.646Z,24.39
2022-08-20T13:08:19.184Z,24.22
2022-08-20T13:10:47.383Z,24.32
2022-08-20T13:13:17.589Z,24.31
2022-08-20T13:15:51.557Z,24.09
2022-08-20T13:18:20.751Z,24.25
2022-08-20T13:20:48.929Z,24.07
2022-08-20T13:23:17.142Z,23.90
2022-08-20T13:25:45.144Z,23.98
2022-08-20T13:28:12.984Z,23.82
2022-08-20T13:30:41.526Z,24.03
2022-08-20T13:33:11.068Z,23.98
2022-08-20T13:35:39.107Z,24.16
2022-08-20T13:38:07.147Z,23.94
2022-08-20T13:40:35.214Z,23.76
2022-08-20T13:43:06.694Z,23.70
2022-08-20T13:45:35.992Z,23.74
2022-08-20T13:48:04.673Z,23.79
2022-08-20T13:50:37.518Z,23.60
2022-08-20T13:53:05.702Z,23.61
2022-08-20T13:55:35.300Z,23.41
2022-08-20T13:58:08.052Z,23.54
2022-08-20T14:00:37.350Z,23.53
2022-08-20T14:03:08.137Z,23.49
2022-08-20T14:05:38.784Z,23.49
2022-08-20T14:08:11.096Z,23.55
2022-08-20T14:10:39.732Z,23.32
2022-08-20T14:13:15.116Z,23.49
2022-08-20T14:15:43.987Z,23.62
2022-08-20T14:18:12.056Z,23.33
2022-08-20T14:20:42.413Z,23.49
2022-08-20T14:23:13.626Z,23.41
2022-08-20T14:25:41.855Z,23.64
2022-08-20T14:28:11.688Z,23.44
2022-08-20T14:30:40.133Z,23.50
2022-08-20T14:33:08.077Z,23.44
2022-08-20T14:35:36.717Z,23.60
2022-08-20T14:38:06.053Z,23.40
2022-08-20T14:40:35.128Z,23.58
2022-08-20T14:43:04.120Z,23.80
2022-08-20T14:45:32.369Z,23.68
2022-08-20T14:48:00.363Z,23.52
2022-08-20T14:50:31.004Z,23.74
2022-08-20T14:52:59.817Z,23.79
2022-08-20T14:55:30.629Z,23.63
2022-08-20T14:57:58.644Z,23.66
2022-08-20T15:00:29.043Z,23.66
2022-08-20T15:02:57.687Z,23.69
2022-08-20T15:05:26.127Z,23.74
2022-08-20T15:07:54.983Z,23.64
2022-08-20T15:10:27.293Z,23.53
2022-08-20T15:12:56.900Z,23.62
2022-08-20T15:15:26.321Z,23.47
2022-08-20T15:17:56.674Z,23.68
2022-08-20T15:20:27.547Z,23.75
2022-08-20T15:22:56.149Z,23.69
2022-08-20T15:25:36.651Z,23.68
2022-08-20T15:28:09.468Z,23.85
2022-08-20T15:30:39.847Z,23.88
2022-08-20T15:33:08.215Z,23.75
2022-08-20T15:35:36.442Z,23.89
2022-08-20T15:38:04.285Z,23.96
2022-08-20T15:40:33.490Z,23.97
2022-08-20T15:43:03.461Z,24.06
2022-08-20T15:45:33.673Z,24.09
2022-08-20T15:48:08.876Z,24.04
2022-08-20T15:51:03.952Z,24.11
2022-08-20T15:53:37.109Z,24.17
2022-08-20T15:56:14.278Z,23.84
2022-08-20T15:58:55.048Z,24.04
2022-08-20T16:01:44.654Z,24.06
2022-08-20T16:04:45.046Z,23.82
2022-08-20T16:07:18.266Z,23.55
2022-08-20T16:09:52.447Z,23.77
2022-08-20T16:12:29.935Z,23.55
2022-08-20T16:15:02.227Z,23.67
2022-08-20T16:17:38.169Z,23.80
2022-08-20T16:20:11.181Z,23.68
2022-08-20T16:22:44.097Z,23.69
2022-08-20T16:25:13.729Z,23.82
2022-08-20T16:27:56.054Z,23.66
2022-08-20T16:30:35.785Z,23.74
2022-08-20T16:33:16.362Z,23.65
2022-08-20T16:35:51.796Z,23.68
2022-08-20T16:38:24.877Z,23.67
2022-08-20T16:40:57.470Z,23.80
2022-08-20T16:43:32.605Z,23.91
2022-08-20T16:46:04.206Z,23.90
2022-08-20T16:48:39.788Z,24.00
2022-08-20T16:51:15.067Z,23.88
2022-08-20T16:53:42.964Z,23.79
2022-08-20T16:56:10.915Z,23.75
2022-08-20T16:58:38.837Z,23.76
2022-08-20T17:01:13.250Z,23.71
2022-08-20T17:03:50.347Z,23.64
2022-08-20T17:06:26.701Z,23.70
2022-08-20T17:08:55.122Z,23.69
2022-08-20T17:11:26.936Z,23.82
2022-08-20T17:14:14.261Z,23.88
2022-08-20T17:16:44.773Z,23.90
2022-08-20T17:19:19.011Z,23.91
2022-08-20T17:21:50.569Z,23.84
2022-08-20T17:24:26.053Z,23.75
2022-08-20T17:26:59.989Z,23.67
2022-08-20T17:29:30.775Z,23.63
2022-08-20T17:32:01.269Z,23.84
2022-08-20T17:34:33.936Z,23.86
2022-08-20T17:37:08.318Z,23.72
2022-08-20T17:39:36.337Z,23.75
2022-08-20T17:42:08.080Z,23.70
2022-08-20T17:44:38.408Z,23.71
2022-08-20T17:47:12.765Z,23.80
2022-08-20T17:49:57.310Z,23.70
2022-08-20T17:52:45.587Z,23.74
2022-08-20T17:55:14.044Z,23.64
2022-08-20T17:57:45.203Z,23.24
2022-08-20T18:00:23.195Z,23.26
2022-08-20T18:02:53.822Z,23.10
2022-08-20T18:05:23.342Z,23.09
2022-08-20T18:08:08.585Z,22.92
2022-08-20T18:10:51.583Z,22.99
2022-08-20T18:13:25.907Z,23.03
2022-08-20T18:15:57.980Z,22.95
2022-08-20T18:18:32.242Z,23.09
2022-08-20T18:21:44.543Z,22.90
2022-08-20T18:24:17.052Z,22.90
2022-08-20T18:26:47.935Z,22.78
2022-08-20T18:29:19.466Z,22.75
2022-08-20T18:31:50.738Z,22.59
2022-08-20T18:34:20.573Z,22.83
2022-08-20T18:37:04.307Z,22.65
2022-08-20T18:39:35.047Z,22.84
2022-08-20T18:42:05.976Z,22.96
2022-08-20T18:44:41.681Z,22.99
2022-08-20T18:47:21.879Z,22.98
2022-08-20T18:50:01.698Z,23.12
2022-08-20T18:52:34.203Z,23.21
2022-08-20T18:55:04.842Z,23.25
2022-08-20T18:57:40.799Z,23.11
2022-08-20T19:00:13.651Z,23.13
2022-08-20T19:02:56.016Z,23.05
2022-08-20T19:05:31.557Z,23.12
2022-08-20T19:08:03.722Z,23.10
2022-08-20T19:10:45.147Z,23.11
2022-08-20T19:13:48.647Z,23.18
2022-08-20T19:16:21.039Z,23.07
2022-08-20T19:18:51.894Z,23.08
2022-08-20T19:21:26.012Z,23.07
2022-08-20T19:24:02.481Z,23.10
2022-08-20T19:26:32.941Z,23.05
2022-08-20T19:29:03.673Z,23.13
2022-08-20T19:31:33.966Z,22.99
2022-08-20T19:34:20.153Z,23.04
2022-08-20T19:36:56.439Z,22.94
2022-08-20T19:39:28.260Z,22.80
2022-08-20T19:41:58.884Z,22.83
2022-08-20T19:44:33.560Z,22.94
2022-08-20T19:47:03.049Z,22.81
2022-08-20T19:49:42.867Z,22.89
2022-08-20T19:52:28.769Z,22.79
2022-08-20T19:55:03.568Z,22.85
2022-08-20T19:57:32.477Z,22.71
2022-08-20T20:00:05.250Z,22.61
2022-08-20T20:02:34.417Z,22.65
2022-08-20T20:05:06.295Z,22.76
2022-08-20T20:07:39.610Z,22.65
2022-08-20T20:10:24.511Z,22.58
2022-08-20T20:12:52.553Z,22.58
2022-08-20T20:15:20.782Z,22.72
2022-08-20T20:17:49.386Z,22.91
2022-08-20T20:20:22.191Z,22.98
2022-08-20T20:22:52.765Z,23.06
2022-08-20T20:25:25.134Z,22.73
2022-08-20T20:27:57.101Z,22.61
2022-08-20T20:30:29.677Z,22.61
2022-08-20T20:33:00.409Z,22.54
2022-08-20T20:35:31.541Z,22.65
2022-08-20T20:38:03.161Z,22.61
2022-08-20T20:40:36.166Z,22.67
2022-08-20T20:43:07.714Z,22.76
2022-08-20T20:45:38.524Z,22.76
2022-08-20T20:48:19.782Z,22.80
2022-08-20T20:50:49.232Z,22.79
2022-08-20T20:53:47.228Z,22.72
2022-08-20T20:56:29.546Z,22.67
2022-08-20T20:59:02.392Z,22.65
2022-08-20T21:01:47.892Z,22.66
2022-08-20T21:04:17.946Z,22.60
2022-08-20T21:06:45.968Z,22.81
2022-08-20T21:09:14.580Z,22.60
2022-08-20T21:11:43.936Z,22.65
2022-08-20T21:14:11.969Z,22.70
2022-08-20T21:16:40.202Z,22.74
2022-08-20T21:19:09.941Z,22.79
2022-08-20T21:21:38.796Z,22.84
2022-08-20T21:24:07.732Z,22.94
2022-08-20T21:26:36.391Z,22.92
2022-08-20T21:29:06.718Z,22.98
2022-08-20T21:31:37.306Z,22.85
2022-08-20T21:34:05.273Z,22.84
2022-08-20T21:36:33.383Z,22.81
2022-08-20T21:39:01.285Z,22.80
2022-08-20T21:41:30.394Z,23.01
2022-08-20T21:43:58.613Z,22.93
2022-08-20T21:46:28.746Z,22.97
2022-08-20T21:48:57.361Z,22.79
2022-08-20T21:51:25.309Z,22.85
2022-08-20T21:53:53.252Z,22.81
2022-08-20T21:56:21.365Z,22.77
2022-08-20T21:58:51.769Z,22.81
2022-08-20T22:01:23.759Z,22.72
2022-08-20T22:03:53.139Z,22.74
2022-08-20T22:06:21.268Z,22.77
2022-08-20T22:08:49.312Z,22.64
2022-08-20T22:11:17.742Z,22.51
2022-08-20T22:13:47.534Z,22.59
2022-08-20T22:16:20.062Z,22.52
2022-08-20T22:18:49.302Z,22.68
2022-08-20T22:21:22.327Z,22.59
2022-08-20T22:23:51.466Z,22.62
2022-08-20T22:26:20.329Z,22.75
2022-08-20T22:28:51.213Z,22.72
2022-08-20T22:31:22.201Z,22.69
2022-08-20T22:33:50.135Z,22.59
2022-08-20T22:36:19.851Z,22.74
2022-08-20T22:38:52.731Z,22.61
2022-08-20T22:41:23.141Z,22.56
2022-08-20T22:43:56.820Z,22.56
2022-08-20T22:46:27.698Z,22.43
2022-08-20T22:48:56.646Z,22.53
2022-08-20T22:51:34.869Z,22.48
2022-08-20T22:54:05.417Z,22.59
2022-08-20T22:56:33.446Z,22.48
2022-08-20T22:59:03.213Z,22.54
2022-08-20T23:01:31.499Z,22.52
2022-08-20T23:04:05.185Z,22.44
2022-08-20T23:06:34.512Z,22.56
2022-08-20T23:09:02.627Z,22.51
2022-08-20T23:11:30.764Z,22.69
2022-08-20T23:13:58.699Z,22.66
2022-08-20T23:16:26.812Z,22.79
2022-08-20T23:18:54.806Z,22.91
2022-08-20T23:21:23.176Z,22.98
2022-08-20T23:23:52.508Z,23.02
2022-08-20T23:26:22.674Z,23.04
2022-08-20T23:28:50.946Z,22.82
2022-08-20T23:31:19.555Z,22.77
2022-08-20T23:33:47.675Z,22.50
2022-08-20T23:36:17.705Z,22.64
2022-08-20T23:38:45.639Z,22.67
2022-08-20T23:41:14.959Z,22.58
2022-08-20T23:43:44.076Z,22.77
2022-08-20T23:46:13.045Z,22.63
2022-08-20T23:48:41.142Z,22.55
2022-08-20T23:51:09.183Z,22.49
2022-08-20T23:53:38.741Z,22.62
2022-08-20T23:56:07.085Z,22.74
2022-08-20T23:58:37.074Z,22.68
